Time;durP1;ratioP1;P1;durP2;ratioP2;P2;SDS_P1;SDS_P2;PMS_P1;PMS_P2;Temp;Humidity;BMP_temperature;BMP_pressure;BME280_temperature;BME280_humidity;BME280_pressure;Samples;Min_cycle;Max_cycle;Signal;HPM_P1;HPM_P2
2023/06/20 11:50:57;;;;;;;3.05;1.83;;;32.30;97.20;;;;;;4487488;23;20236;-69
2023/06/20 11:53:26;;;;;;;2.25;1.63;;;32.10;96.70;;;;;;4955810;29;20240;-68
2023/06/20 11:55:54;;;;;;;5.13;1.55;;;32.10;96.20;;;;;;4956118;29;20250;-67
2023/06/20 11:58:22;;;;;;;2.50;1.67;;;31.90;96.90;;;;;;4956049;29;20250;-67
2023/06/20 12:01:04;;;;;;;3.05;1.60;;;31.90;97.10;;;;;;4956312;29;20212;-68
2023/06/20 12:03:32;;;;;;;1.63;1.30;;;32.00;97.10;;;;;;4951195;29;20662;-68
2023/06/20 12:06:00;;;;;;;3.90;1.73;;;31.90;96.80;;;;;;4950383;29;20207;-70
2023/06/20 12:08:33;;;;;;;1.85;1.50;;;32.00;95.80;;;;;;4954354;29;20232;-68
2023/06/20 12:11:01;;;;;;;2.47;1.70;;;31.80;96.20;;;;;;4945459;29;20204;-68
2023/06/20 12:13:28;;;;;;;1.90;1.58;;;31.70;96.40;;;;;;4954003;29;20231;-69
2023/06/20 12:15:56;;;;;;;2.42;1.75;;;31.70;96.40;;;;;;4954261;29;20296;-69
2023/06/20 12:18:23;;;;;;;1.90;1.63;;;31.90;96.80;;;;;;4955462;29;20230;-70
2023/06/20 12:20:50;;;;;;;1.60;1.50;;;32.00;96.30;;;;;;4951411;29;20201;-69
2023/06/20 12:23:19;;;;;;;4.20;1.88;;;32.10;96.20;;;;;;4946463;29;20204;-69
2023/06/20 12:25:46;;;;;;;2.97;1.83;;;32.30;96.60;;;;;;4942452;29;20218;-70
2023/06/20 12:28:13;;;;;;;2.03;1.77;;;32.70;96.30;;;;;;4955679;28;20256;-70
2023/06/20 12:30:40;;;;;;;1.40;1.30;;;33.10;96.20;;;;;;4955563;28;20212;-70
2023/06/20 12:33:09;;;;;;;2.03;1.55;;;33.00;95.60;;;;;;4955541;29;20773;-70
2023/06/20 12:35:36;;;;;;;2.40;1.40;;;32.80;94.90;;;;;;4954987;29;20212;-70
2023/06/20 12:38:03;;;;;;;2.15;1.70;;;32.50;95.30;;;;;;4955079;29;20238;-71
2023/06/20 12:40:31;;;;;;;2.05;1.60;;;32.40;95.40;;;;;;4954789;29;20208;-71
2023/06/20 12:42:58;;;;;;;2.10;1.90;;;32.20;95.60;;;;;;4936437;29;20216;-71
2023/06/20 12:45:25;;;;;;;2.70;1.65;;;32.40;95.80;;;;;;4936568;29;20209;-71
2023/06/20 12:47:52;;;;;;;1.52;1.40;;;32.50;95.40;;;;;;4936069;29;20235;-71
2023/06/20 12:50:19;;;;;;;3.47;1.73;;;32.40;95.40;;;;;;4935943;29;20219;-71
2023/06/20 12:52:45;;;;;;;2.05;1.50;;;32.40;95.70;;;;;;4935591;29;20211;-71
2023/06/20 12:55:13;;;;;;;4.22;1.70;;;32.40;95.40;;;;;;4936057;29;20220;-71
2023/06/20 12:57:41;;;;;;;3.50;1.63;;;32.10;95.20;;;;;;4936963;29;20233;-72
2023/06/20 13:00:09;;;;;;;2.65;1.90;;;32.20;95.60;;;;;;4935286;29;20213;-71
2023/06/20 13:02:36;;;;;;;1.50;1.20;;;32.10;95.10;;;;;;4938431;29;20544;-71
2023/06/20 13:05:04;;;;;;;2.55;1.60;;;31.80;95.40;;;;;;4954795;29;20218;-71
2023/06/20 13:07:30;;;;;;;2.08;1.70;;;31.50;96.20;;;;;;4939106;29;20229;-70
2023/06/20 13:09:57;;;;;;;3.33;1.70;;;31.50;97.20;;;;;;4935983;29;20308;-69
2023/06/20 13:12:26;;;;;;;2.17;1.70;;;31.60;95.90;;;;;;4935804;29;20294;-70
2023/06/20 13:14:54;;;;;;;2.08;1.50;;;31.40;95.70;;;;;;4935494;29;20293;-71
2023/06/20 13:17:22;;;;;;;2.40;1.92;;;31.30;96.00;;;;;;4937292;29;20228;-71
2023/06/20 13:19:49;;;;;;;2.53;1.60;;;31.50;96.30;;;;;;4935752;29;20212;-70
2023/06/20 13:22:15;;;;;;;2.35;1.60;;;31.70;96.30;;;;;;4935543;29;20682;-70
2023/06/20 13:24:44;;;;;;;2.65;1.60;;;31.80;95.90;;;;;;4935671;29;20208;-71
2023/06/20 13:27:12;;;;;;;1.77;1.48;;;31.70;95.80;;;;;;4949421;29;20260;-71
2023/06/20 13:29:38;;;;;;;2.42;1.52;;;31.60;96.20;;;;;;4954732;29;20666;-71
2023/06/20 13:32:07;;;;;;;1.98;1.55;;;31.70;95.70;;;;;;4954796;29;20223;-71
2023/06/20 13:34:34;;;;;;;2.85;1.90;;;31.50;95.70;;;;;;4955029;29;20235;-71
2023/06/20 13:37:01;;;;;;;2.20;1.65;;;31.50;96.20;;;;;;4954318;29;20204;-71
2023/06/20 13:39:29;;;;;;;2.10;1.77;;;31.30;96.30;;;;;;4954970;29;20214;-71
2023/06/20 13:41:56;;;;;;;2.65;1.67;;;31.30;96.50;;;;;;4954385;29;20558;-70
2023/06/20 13:44:23;;;;;;;3.97;1.65;;;31.50;96.80;;;;;;4954053;29;20218;-72
2023/06/20 13:46:51;;;;;;;2.63;1.60;;;31.40;96.70;;;;;;4954136;29;20366;-72
2023/06/20 13:49:19;;;;;;;3.67;1.95;;;31.00;96.40;;;;;;4954211;29;20299;-71
2023/06/20 13:51:46;;;;;;;4.03;2.13;;;30.80;97.00;;;;;;4953731;29;20220;-71
2023/06/20 13:54:13;;;;;;;2.63;1.98;;;30.60;97.30;;;;;;4954188;29;20727;-71
2023/06/20 13:56:41;;;;;;;3.70;2.00;;;30.50;97.70;;;;;;4954670;29;20234;-71
2023/06/20 13:59:08;;;;;;;4.07;2.00;;;30.30;97.90;;;;;;4954641;29;20212;-71
2023/06/20 14:01:35;;;;;;;4.50;2.28;;;30.10;98.00;;;;;;4954593;29;20212;-72
2023/06/20 14:04:04;;;;;;;3.72;2.10;;;30.00;98.40;;;;;;4954968;29;20216;-69
2023/06/20 14:06:33;;;;;;;2.30;2.10;;;30.10;98.60;;;;;;4954624;29;20210;-71
2023/06/20 14:09:00;;;;;;;3.80;1.75;;;30.00;98.70;;;;;;4954519;29;20228;-71
2023/06/20 14:11:27;;;;;;;2.60;1.90;;;29.80;98.20;;;;;;4955093;28;20686;-71
2023/06/20 14:13:54;;;;;;;3.33;2.10;;;29.70;98.80;;;;;;4958016;29;20235;-71
2023/06/20 14:16:23;;;;;;;2.47;1.77;;;29.70;98.80;;;;;;4958601;29;20204;-70
2023/06/20 14:18:50;;;;;;;2.42;1.90;;;29.60;98.90;;;;;;4958359;29;20232;-69
2023/06/20 14:21:18;;;;;;;3.90;1.65;;;29.60;98.60;;;;;;4958303;29;20211;-69
2023/06/20 14:23:46;;;;;;;3.15;1.60;;;29.50;99.00;;;;;;4958294;29;20611;-71
2023/06/20 14:26:15;;;;;;;2.20;1.73;;;29.40;99.20;;;;;;4957848;29;20211;-71
2023/06/20 14:28:43;;;;;;;2.20;1.80;;;29.40;99.10;;;;;;4958036;29;20319;-69
2023/06/20 14:31:10;;;;;;;2.10;1.88;;;29.20;99.10;;;;;;4957720;29;20685;-71
2023/06/20 14:33:38;;;;;;;5.20;2.17;;;29.10;99.40;;;;;;4958123;29;20239;-70
2023/06/20 14:36:05;;;;;;;7.03;1.75;;;28.80;99.80;;;;;;4957661;29;20315;-70
2023/06/20 14:38:32;;;;;;;2.53;2.05;;;28.80;99.70;;;;;;4957761;29;20235;-71
2023/06/20 14:41:00;;;;;;;2.30;1.88;;;28.70;99.60;;;;;;4957202;29;20714;-69
2023/06/20 14:43:27;;;;;;;3.25;1.75;;;28.80;99.80;;;;;;4957764;29;20750;-68
2023/06/20 14:45:54;;;;;;;2.72;1.80;;;28.80;99.60;;;;;;4957759;29;20212;-69
2023/06/20 14:48:21;;;;;;;2.63;1.73;;;28.70;99.70;;;;;;4957516;29;20232;-71
2023/06/20 14:50:48;;;;;;;2.88;2.03;;;28.70;99.90;;;;;;4957843;29;20311;-70
2023/06/20 14:53:14;;;;;;;2.42;1.90;;;28.50;99.90;;;;;;4957644;29;20212;-70
2023/06/20 14:55:41;;;;;;;2.13;1.90;;;28.40;99.80;;;;;;4957597;29;20204;-69
2023/06/20 14:58:09;;;;;;;2.65;2.05;;;28.40;99.90;;;;;;4957506;29;20568;-68
2023/06/20 15:00:36;;;;;;;3.13;1.98;;;28.40;99.90;;;;;;4957393;29;20295;-71
2023/06/20 15:03:03;;;;;;;2.03;1.75;;;28.50;99.60;;;;;;4957380;29;20294;-69
2023/06/20 15:05:31;;;;;;;2.95;2.10;;;28.50;99.90;;;;;;4952297;29;20295;-68
2023/06/20 15:07:58;;;;;;;2.40;2.10;;;28.50;99.90;;;;;;4956672;29;20286;-69
2023/06/20 15:10:27;;;;;;;2.88;2.00;;;28.40;99.90;;;;;;4947906;29;20208;-69
2023/06/20 15:12:54;;;;;;;2.47;1.70;;;28.40;99.90;;;;;;4956790;29;20680;-69
2023/06/20 15:15:22;;;;;;;3.75;2.00;;;28.50;99.90;;;;;;4956820;29;20599;-69
2023/06/20 15:17:49;;;;;;;3.47;1.92;;;28.60;99.90;;;;;;4956708;29;20331;-69
2023/06/20 15:20:16;;;;;;;3.20;1.98;;;28.80;99.90;;;;;;4956530;29;20231;-69
2023/06/20 15:22:43;;;;;;;3.75;2.30;;;28.90;99.90;;;;;;4949439;28;20207;-69
2023/06/20 15:25:10;;;;;;;3.90;2.10;;;29.10;99.90;;;;;;4938247;29;20610;-69
2023/06/20 15:27:38;;;;;;;5.43;1.90;;;29.30;99.70;;;;;;4937092;29;20228;-68
2023/06/20 15:30:06;;;;;;;7.03;2.15;;;29.60;99.80;;;;;;4937573;29;20209;-69
2023/06/20 15:32:34;;;;;;;3.67;2.10;;;29.50;99.80;;;;;;4937637;29;20215;-69
2023/06/20 15:35:01;;;;;;;4.72;2.13;;;29.50;99.70;;;;;;4940016;29;20237;-68
2023/06/20 15:37:27;;;;;;;2.47;1.80;;;29.30;99.90;;;;;;4939803;29;20228;-67
2023/06/20 15:39:54;;;;;;;4.65;2.08;;;29.20;99.60;;;;;;4939787;29;20682;-67
2023/06/20 15:42:21;;;;;;;2.33;1.80;;;29.00;99.90;;;;;;4940183;29;20212;-68
2023/06/20 15:44:48;;;;;;;3.35;2.17;;;29.00;99.90;;;;;;4939353;29;20208;-68
2023/06/20 15:47:15;;;;;;;4.15;2.40;;;29.00;99.90;;;;;;4937669;29;20235;-69
2023/06/20 15:49:43;;;;;;;2.58;2.05;;;28.90;99.90;;;;;;4937233;29;20211;-68
2023/06/20 15:52:10;;;;;;;2.88;1.90;;;28.80;99.90;;;;;;4937611;29;20219;-68
2023/06/20 15:54:37;;;;;;;2.53;1.85;;;29.00;99.90;;;;;;4939366;29;20300;-68
2023/06/20 15:57:06;;;;;;;3.35;1.95;;;29.00;99.90;;;;;;4937340;29;20252;-68
2023/06/20 15:59:33;;;;;;;2.58;1.90;;;28.90;99.90;;;;;;4940978;29;20564;-68
2023/06/20 16:01:59;;;;;;;2.47;1.70;;;28.90;99.90;;;;;;4939363;29;20209;-69
2023/06/20 16:04:26;;;;;;;3.85;1.92;;;28.90;99.80;;;;;;4952010;29;20219;-69
2023/06/20 16:06:55;;;;;;;3.33;1.60;;;28.90;99.80;;;;;;4937307;29;20215;-68
2023/06/20 16:09:21;;;;;;;2.22;1.55;;;28.80;99.90;;;;;;4938706;29;20747;-69
2023/06/20 16:11:48;;;;;;;3.33;1.80;;;28.60;99.90;;;;;;4937587;29;20209;-68
2023/06/20 16:14:15;;;;;;;2.03;1.30;;;28.50;99.90;;;;;;4942017;29;20586;-68
2023/06/20 16:16:42;;;;;;;3.97;1.40;;;28.30;99.90;;;;;;4955401;29;20307;-68
2023/06/20 16:19:09;;;;;;;1.30;1.00;;;28.30;99.90;;;;;;4955267;29;20574;-69
2023/06/20 16:21:35;;;;;;;2.60;1.50;;;28.20;99.90;;;;;;4955571;29;20307;-69
2023/06/20 16:24:04;;;;;;;5.25;1.35;;;28.10;99.90;;;;;;4955436;29;20208;-68
2023/06/20 16:26:31;;;;;;;3.80;1.60;;;27.90;99.90;;;;;;4936527;29;20264;-69
2023/06/20 16:28:58;;;;;;;2.40;1.75;;;27.80;99.90;;;;;;4936441;29;20284;-69
2023/06/20 16:31:25;;;;;;;4.72;1.80;;;27.70;99.90;;;;;;4953698;29;20299;-68
2023/06/20 16:33:53;;;;;;;2.53;1.67;;;27.50;99.90;;;;;;4954433;28;20242;-69
2023/06/20 16:36:20;;;;;;;2.53;1.50;;;27.30;99.90;;;;;;4955007;29;20208;-69
2023/06/20 16:38:46;;;;;;;2.20;1.70;;;27.10;99.90;;;;;;4954890;29;20703;-68
2023/06/20 16:41:15;;;;;;;2.67;1.73;;;26.90;99.90;;;;;;4955149;29;20299;-68
2023/06/20 16:43:42;;;;;;;1.90;1.48;;;26.90;99.90;;;;;;4955015;29;20208;-71
2023/06/20 16:46:10;;;;;;;2.97;1.60;;;26.80;99.90;;;;;;4955255;29;20568;-70
2023/06/20 16:48:36;;;;;;;4.07;1.65;;;26.70;99.90;;;;;;4955494;29;20234;-69
2023/06/20 16:51:03;;;;;;;2.00;1.65;;;26.60;99.90;;;;;;4955112;29;20298;-72
2023/06/20 16:53:30;;;;;;;2.55;1.40;;;26.40;99.90;;;;;;4955123;29;20294;-72
2023/06/20 16:55:57;;;;;;;2.90;1.40;;;26.30;99.90;;;;;;4954475;29;20236;-71
2023/06/20 16:58:25;;;;;;;2.72;1.80;;;26.30;99.90;;;;;;4954334;29;20250;-70
2023/06/20 17:00:52;;;;;;;3.15;1.52;;;26.40;99.90;;;;;;4936208;29;20205;-71
2023/06/20 17:03:19;;;;;;;2.35;1.70;;;26.60;99.90;;;;;;4935495;29;20209;-71
2023/06/20 17:05:46;;;;;;;3.38;1.50;;;26.60;99.90;;;;;;4953159;29;20221;-71
2023/06/20 17:08:12;;;;;;;2.33;1.73;;;26.60;99.90;;;;;;4954550;29;20324;-70
2023/06/20 17:10:39;;;;;;;3.67;1.90;;;26.70;99.90;;;;;;4954410;29;20663;-71
2023/06/20 17:13:06;;;;;;;5.53;1.63;;;26.70;99.90;;;;;;4954879;29;20216;-70
2023/06/20 17:15:34;;;;;;;2.38;1.65;;;26.50;99.90;;;;;;4954367;29;20239;-70
2023/06/20 17:18:01;;;;;;;3.80;1.60;;;26.30;99.90;;;;;;4954336;29;20318;-71
2023/06/20 17:20:29;;;;;;;3.13;1.70;;;25.90;99.90;;;;;;4954234;29;20300;-69
2023/06/20 17:22:56;;;;;;;3.80;1.50;;;25.60;99.90;;;;;;4954744;29;20283;-68
2023/06/20 17:25:22;;;;;;;2.42;1.60;;;25.30;99.90;;;;;;4954664;29;20688;-69
2023/06/20 17:27:49;;;;;;;6.25;1.77;;;25.00;99.90;;;;;;4954531;29;20760;-68
2023/06/20 17:30:17;;;;;;;3.13;1.52;;;24.70;99.90;;;;;;4954707;29;20208;-68
2023/06/20 17:32:45;;;;;;;2.42;1.55;;;24.30;99.90;;;;;;4954502;29;20219;-69
2023/06/20 17:35:12;;;;;;;3.47;1.50;;;24.20;99.90;;;;;;4954552;29;20330;-68
2023/06/20 17:37:39;;;;;;;1.77;1.38;;;24.10;99.90;;;;;;4954636;29;20230;-68
2023/06/20 17:40:07;;;;;;;3.20;1.50;;;24.00;99.90;;;;;;4954229;29;20208;-68
2023/06/20 17:42:33;;;;;;;3.67;1.50;;;23.90;99.90;;;;;;4954174;29;20254;-68
2023/06/20 17:45:00;;;;;;;3.25;1.70;;;23.80;99.90;;;;;;4952243;28;20216;-68
2023/06/20 17:47:28;;;;;;;4.05;1.60;;;23.70;99.90;;;;;;4957011;29;20227;-69
2023/06/20 17:49:57;;;;;;;3.95;1.45;;;23.50;99.90;;;;;;4958119;29;20236;-68
2023/06/20 17:52:24;;;;;;;3.05;1.50;;;23.20;99.90;;;;;;4957385;29;20208;-68
2023/06/20 17:54:51;;;;;;;4.35;1.63;;;22.90;99.90;;;;;;4958600;29;20242;-68
2023/06/20 17:57:18;;;;;;;6.25;1.83;;;22.60;99.90;;;;;;4958148;29;20238;-69
2023/06/20 17:59:45;;;;;;;6.55;2.40;;;22.20;99.90;;;;;;4958440;29;20307;-69
2023/06/20 18:02:13;;;;;;;5.40;1.98;;;21.90;99.90;;;;;;4958644;29;20216;-69
2023/06/20 18:04:40;;;;;;;4.50;1.80;;;21.60;99.90;;;;;;4958332;29;20571;-69
2023/06/20 18:07:08;;;;;;;2.83;1.52;;;21.40;99.90;;;;;;4958104;29;20250;-69
2023/06/20 18:09:35;;;;;;;3.65;1.98;;;21.20;99.90;;;;;;4958311;29;20295;-69
2023/06/20 18:12:02;;;;;;;3.78;1.75;;;21.00;99.90;;;;;;4958060;29;20737;-69
2023/06/20 18:14:29;;;;;;;2.63;1.65;;;20.90;99.90;;;;;;4958245;29;20215;-68
2023/06/20 18:16:56;;;;;;;2.58;1.73;;;20.80;99.90;;;;;;4958096;29;20566;-69
2023/06/20 18:19:25;;;;;;;4.03;1.98;;;20.90;99.90;;;;;;4958077;29;20212;-68
2023/06/20 18:21:52;;;;;;;3.55;1.77;;;20.90;99.90;;;;;;4957685;29;20216;-69
2023/06/20 18:24:20;;;;;;;6.63;2.22;;;20.90;99.90;;;;;;4951252;29;20230;-69
2023/06/20 18:26:47;;;;;;;4.05;1.70;;;20.80;99.90;;;;;;4951206;29;20219;-69
2023/06/20 18:29:14;;;;;;;6.45;1.98;;;20.80;99.90;;;;;;4953683;29;20214;-69
2023/06/20 18:31:41;;;;;;;2.58;1.80;;;20.80;99.90;;;;;;4951297;29;20731;-69
2023/06/20 18:34:07;;;;;;;4.30;1.80;;;20.70;99.90;;;;;;4940796;29;20258;-69
2023/06/20 18:36:34;;;;;;;5.53;1.70;;;20.70;99.90;;;;;;4941174;29;20342;-68
2023/06/20 18:39:01;;;;;;;5.45;1.85;;;20.70;99.90;;;;;;4946942;29;20306;-69
2023/06/20 18:41:31;;;;;;;3.90;2.05;;;20.50;99.90;;;;;;4952077;29;20208;-69
2023/06/20 18:43:58;;;;;;;3.83;2.03;;;20.50;99.90;;;;;;4955099;29;20200;-69
2023/06/20 18:46:25;;;;;;;3.35;1.60;;;20.40;99.90;;;;;;4947301;29;20216;-68
2023/06/20 18:48:52;;;;;;;2.78;1.70;;;20.40;99.90;;;;;;4954117;29;20231;-69
2023/06/20 18:51:21;;;;;;;3.00;1.88;;;20.40;99.90;;;;;;4946668;29;20220;-69
2023/06/20 18:53:50;;;;;;;3.05;1.88;;;20.40;99.90;;;;;;4954001;29;20215;-69
2023/06/20 18:56:17;;;;;;;2.78;1.65;;;20.40;99.90;;;;;;4944577;29;20243;-69
2023/06/20 18:58:46;;;;;;;3.80;1.70;;;20.30;99.90;;;;;;4949439;28;20235;-69
2023/06/20 19:01:13;;;;;;;2.75;1.75;;;20.30;99.90;;;;;;4946285;29;20291;-69
2023/06/20 19:03:40;;;;;;;4.50;2.03;;;20.20;99.90;;;;;;4950519;29;20234;-70
2023/06/20 19:06:07;;;;;;;2.40;1.58;;;20.20;99.90;;;;;;4951175;29;20214;-69
2023/06/20 19:08:35;;;;;;;3.15;1.60;;;20.20;99.90;;;;;;4950155;29;20737;-69
2023/06/20 19:11:02;;;;;;;2.75;1.50;;;20.20;99.90;;;;;;4949797;29;20212;-69
2023/06/20 19:13:29;;;;;;;7.45;2.05;;;20.20;99.90;;;;;;4950077;29;20563;-69
2023/06/20 19:15:57;;;;;;;3.05;1.70;;;20.20;99.90;;;;;;4947856;29;20235;-69
2023/06/20 19:18:24;;;;;;;2.53;1.75;;;20.20;99.90;;;;;;4948293;29;20224;-69
2023/06/20 19:20:51;;;;;;;3.33;1.88;;;20.20;99.90;;;;;;4947454;29;20295;-70
2023/06/20 19:23:18;;;;;;;3.95;1.92;;;20.20;99.90;;;;;;4941177;29;20655;-69
2023/06/20 19:25:45;;;;;;;4.00;1.70;;;20.20;99.90;;;;;;4946510;29;20216;-70
2023/06/20 19:28:12;;;;;;;5.72;1.70;;;20.20;99.90;;;;;;4946593;29;20232;-70
2023/06/20 19:30:40;;;;;;;4.00;1.55;;;20.20;99.90;;;;;;4954143;29;20620;-71
2023/06/20 19:33:08;;;;;;;4.45;2.20;;;20.10;99.90;;;;;;4952295;29;20208;-69
2023/06/20 19:35:35;;;;;;;4.22;2.00;;;20.10;99.90;;;;;;4952598;29;20745;-69
2023/06/20 19:38:02;;;;;;;3.50;1.92;;;20.00;99.90;;;;;;4941515;29;20232;-69
2023/06/20 19:40:29;;;;;;;4.47;1.90;;;20.10;99.90;;;;;;4951029;29;20209;-69
2023/06/20 19:42:55;;;;;;;3.20;1.83;;;20.10;99.90;;;;;;4954960;29;20212;-69
2023/06/20 19:45:22;;;;;;;3.63;1.80;;;20.10;99.90;;;;;;4949357;29;20242;-69
2023/06/20 19:47:49;;;;;;;4.07;1.92;;;20.10;99.90;;;;;;4948732;29;20227;-71
2023/06/20 19:50:17;;;;;;;5.13;1.67;;;20.10;99.90;;;;;;4949361;29;20252;-69
2023/06/20 19:52:44;;;;;;;2.97;1.80;;;20.20;99.90;;;;;;4947354;29;20214;-69
2023/06/20 19:55:11;;;;;;;4.72;2.10;;;20.20;99.90;;;;;;4947897;29;20204;-69
2023/06/20 19:57:38;;;;;;;4.10;1.88;;;20.10;99.90;;;;;;4945422;29;20227;-69
2023/06/20 20:00:06;;;;;;;3.28;1.98;;;20.10;99.90;;;;;;4942946;29;20209;-70
2023/06/20 20:02:33;;;;;;;5.65;2.28;;;20.20;99.90;;;;;;4943737;29;20577;-69
2023/06/20 20:05:00;;;;;;;3.78;1.95;;;20.10;99.90;;;;;;4944713;29;20296;-70
2023/06/20 20:07:28;;;;;;;5.43;1.90;;;20.10;99.90;;;;;;4954616;29;20319;-70
2023/06/20 20:09:55;;;;;;;3.15;2.03;;;20.20;99.90;;;;;;4941745;28;20209;-70
2023/06/20 20:12:23;;;;;;;3.45;2.30;;;20.20;99.90;;;;;;4954711;29;20208;-70
2023/06/20 20:14:51;;;;;;;5.55;2.50;;;20.10;99.90;;;;;;4940180;29;20209;-69
2023/06/20 20:17:17;;;;;;;4.55;1.83;;;20.10;99.90;;;;;;4953377;29;20243;-70
2023/06/20 20:19:44;;;;;;;3.17;2.03;;;20.00;99.90;;;;;;4946407;29;20215;-70
2023/06/20 20:22:12;;;;;;;6.82;2.50;;;20.00;99.90;;;;;;4951844;29;20200;-69
2023/06/20 20:24:40;;;;;;;4.97;1.73;;;20.00;99.90;;;;;;4945111;29;20345;-70
2023/06/20 20:27:09;;;;;;;3.60;2.17;;;20.00;99.90;;;;;;4950632;29;20319;-69
2023/06/20 20:29:37;;;;;;;4.80;2.55;;;20.10;99.90;;;;;;4946366;29;20213;-69
2023/06/20 20:32:05;;;;;;;4.30;2.33;;;20.10;99.90;;;;;;4949291;29;20287;-70
2023/06/20 20:34:34;;;;;;;3.65;2.30;;;20.00;99.90;;;;;;4943966;29;20219;-70
2023/06/20 20:37:01;;;;;;;5.03;2.05;;;20.10;99.90;;;;;;4949596;29;20244;-70
2023/06/20 20:39:27;;;;;;;4.68;2.15;;;20.10;99.90;;;;;;4939974;29;20220;-70
2023/06/20 20:41:56;;;;;;;3.42;1.98;;;20.10;99.90;;;;;;4947950;29;20247;-69
2023/06/20 20:44:23;;;;;;;3.13;2.17;;;20.10;99.90;;;;;;4951502;29;20219;-70
2023/06/20 20:46:50;;;;;;;3.00;2.35;;;20.00;99.90;;;;;;4944316;29;20209;-70
2023/06/20 20:49:17;;;;;;;2.92;1.90;;;20.00;99.90;;;;;;4951491;29;20579;-70
2023/06/20 20:51:43;;;;;;;5.32;2.33;;;20.00;99.90;;;;;;4941226;29;20217;-69
2023/06/20 20:54:10;;;;;;;7.07;2.42;;;20.10;99.90;;;;;;4952717;29;20299;-69
2023/06/20 20:56:37;;;;;;;4.03;2.28;;;20.10;99.90;;;;;;4944260;29;20319;-69
2023/06/20 20:59:05;;;;;;;4.20;2.35;;;20.10;99.90;;;;;;4944919;29;20235;-69
2023/06/20 21:01:32;;;;;;;5.50;2.50;;;20.10;99.90;;;;;;4946933;29;20213;-69
2023/06/20 21:03:59;;;;;;;6.20;2.47;;;20.10;99.90;;;;;;4952892;29;20204;-69
2023/06/20 21:06:26;;;;;;;3.80;2.28;;;20.10;99.90;;;;;;4944758;29;20660;-69
2023/06/20 21:08:53;;;;;;;4.30;2.50;;;20.10;99.90;;;;;;4952072;29;20231;-69
2023/06/20 21:11:20;;;;;;;5.75;2.83;;;20.20;99.90;;;;;;4944473;29;20312;-69
2023/06/20 21:13:46;;;;;;;4.30;2.00;;;20.20;99.90;;;;;;4949981;29;20246;-69
2023/06/20 21:16:14;;;;;;;5.68;2.30;;;20.20;99.90;;;;;;4944561;29;20242;-70
2023/06/20 21:18:41;;;;;;;3.10;2.08;;;20.20;99.90;;;;;;4947241;29;20711;-69
2023/06/20 21:21:08;;;;;;;2.72;2.20;;;20.00;99.90;;;;;;4943162;29;20240;-69
2023/06/20 21:23:35;;;;;;;5.00;2.30;;;20.00;99.90;;;;;;4943794;29;20209;-69
2023/06/20 21:26:02;;;;;;;3.22;2.40;;;20.00;99.90;;;;;;4947681;29;20234;-68
2023/06/20 21:28:29;;;;;;;2.60;1.90;;;20.10;99.90;;;;;;4936826;29;20233;-69
2023/06/20 21:30:57;;;;;;;4.45;2.30;;;20.10;99.90;;;;;;4950063;29;20663;-69
2023/06/20 21:33:30;;;;;;;3.30;2.20;;;20.10;99.90;;;;;;4954402;29;20275;-69
2023/06/20 21:35:57;;;;;;;2.58;2.03;;;20.10;99.90;;;;;;4954514;29;20240;-69
2023/06/20 21:38:24;;;;;;;3.15;2.20;;;20.10;99.90;;;;;;4949415;29;20258;-71
